sensor_id;sensor_type;location;lat;lon;timestamp;temperature;humidity
66726;HTU21D;53638;51.062;5.804;2022-08-06T00:01:54;13.96;109.02
66726;HTU21D;53638;51.062;5.804;2022-08-06T00:04:21;13.97;108.66
66726;HTU21D;53638;51.062;5.804;2022-08-06T00:06:47;13.98;108.97
66726;HTU21D;53638;51.062;5.804;2022-08-06T00:09:13;13.99;108.65
66726;HTU21D;53638;51.062;5.804;2022-08-06T00:11:40;13.97;108.87
66726;HTU21D;53638;51.062;5.804;2022-08-06T00:14:07;13.93;108.99
66726;HTU21D;53638;51.062;5.804;2022-08-06T00:16:34;13.84;109.37
66726;HTU21D;53638;51.062;5.804;2022-08-06T00:19:00;13.76;109.31
66726;HTU21D;53638;51.062;5.804;2022-08-06T00:21:26;13.70;110.26
66726;HTU21D;53638;51.062;5.804;2022-08-06T00:23:52;13.66;110.81
66726;HTU21D;53638;51.062;5.804;2022-08-06T00:26:17;13.63;111.43
66726;HTU21D;53638;51.062;5.804;2022-08-06T00:28:43;13.61;110.03
66726;HTU21D;53638;51.062;5.804;2022-08-06T00:31:09;13.58;109.86
66726;HTU21D;53638;51.062;5.804;2022-08-06T00:33:35;13.56;110.13
66726;HTU21D;53638;51.062;5.804;2022-08-06T00:36:02;13.58;109.19
66726;HTU21D;53638;51.062;5.804;2022-08-06T00:38:28;13.56;107.44
66726;HTU21D;53638;51.062;5.804;2022-08-06T00:40:54;13.58;106.31
66726;HTU21D;53638;51.062;5.804;2022-08-06T00:43:21;13.56;106.37
66726;HTU21D;53638;51.062;5.804;2022-08-06T00:45:46;13.56;107.92
66726;HTU21D;53638;51.062;5.804;2022-08-06T00:48:13;13.56;107.30
66726;HTU21D;53638;51.062;5.804;2022-08-06T00:50:39;13.53;105.99
66726;HTU21D;53638;51.062;5.804;2022-08-06T00:53:05;13.51;103.48
66726;HTU21D;53638;51.062;5.804;2022-08-06T00:55:32;13.47;102.94
66726;HTU21D;53638;51.062;5.804;2022-08-06T00:57:58;13.41;104.66
66726;HTU21D;53638;51.062;5.804;2022-08-06T01:00:24;13.38;107.66
66726;HTU21D;53638;51.062;5.804;2022-08-06T01:02:50;13.40;109.59
66726;HTU21D;53638;51.062;5.804;2022-08-06T01:05:15;13.44;111.25
66726;HTU21D;53638;51.062;5.804;2022-08-06T01:07:42;13.47;112.20
66726;HTU21D;53638;51.062;5.804;2022-08-06T01:10:08;13.49;111.81
66726;HTU21D;53638;51.062;5.804;2022-08-06T01:12:34;13.50;111.70
66726;HTU21D;53638;51.062;5.804;2022-08-06T01:14:59;13.51;112.40
66726;HTU21D;53638;51.062;5.804;2022-08-06T01:17:42;13.50;113.60
66726;HTU21D;53638;51.062;5.804;2022-08-06T01:20:22;13.50;114.22
66726;HTU21D;53638;51.062;5.804;2022-08-06T01:28:23;13.38;114.21
66726;HTU21D;53638;51.062;5.804;2022-08-06T01:30:56;13.39;113.72
66726;HTU21D;53638;51.062;5.804;2022-08-06T01:33:27;13.37;114.06
66726;HTU21D;53638;51.062;5.804;2022-08-06T01:36:00;13.35;113.73
66726;HTU21D;53638;51.062;5.804;2022-08-06T01:38:34;13.24;114.03
66726;HTU21D;53638;51.062;5.804;2022-08-06T01:41:05;13.09;115.76
66726;HTU21D;53638;51.062;5.804;2022-08-06T01:43:35;12.96;116.44
66726;HTU21D;53638;51.062;5.804;2022-08-06T01:46:03;12.92;116.89
66726;HTU21D;53638;51.062;5.804;2022-08-06T01:48:32;12.86;117.37
66726;HTU21D;53638;51.062;5.804;2022-08-06T01:51:03;12.84;115.32
66726;HTU21D;53638;51.062;5.804;2022-08-06T01:53:34;12.81;115.96
66726;HTU21D;53638;51.062;5.804;2022-08-06T01:56:02;12.79;114.96
66726;HTU21D;53638;51.062;5.804;2022-08-06T01:58:34;12.81;115.60
66726;HTU21D;53638;51.062;5.804;2022-08-06T02:01:06;12.78;114.41
66726;HTU21D;53638;51.062;5.804;2022-08-06T02:03:35;12.77;113.24
66726;HTU21D;53638;51.062;5.804;2022-08-06T02:06:06;12.74;113.74
66726;HTU21D;53638;51.062;5.804;2022-08-06T02:08:34;12.69;114.75
66726;HTU21D;53638;51.062;5.804;2022-08-06T02:11:03;12.69;113.45
66726;HTU21D;53638;51.062;5.804;2022-08-06T02:13:33;12.70;114.27
66726;HTU21D;53638;51.062;5.804;2022-08-06T02:16:03;12.67;113.69
66726;HTU21D;53638;51.062;5.804;2022-08-06T02:18:36;12.64;112.50
66726;HTU21D;53638;51.062;5.804;2022-08-06T02:21:06;12.61;112.31
66726;HTU21D;53638;51.062;5.804;2022-08-06T02:23:36;12.58;111.41
66726;HTU21D;53638;51.062;5.804;2022-08-06T02:26:04;12.57;111.54
66726;HTU21D;53638;51.062;5.804;2022-08-06T02:28:31;12.51;110.89
66726;HTU21D;53638;51.062;5.804;2022-08-06T02:30:59;12.51;110.96
66726;HTU21D;53638;51.062;5.804;2022-08-06T02:33:26;12.45;112.18
66726;HTU21D;53638;51.062;5.804;2022-08-06T02:36:11;12.41;111.09
66726;HTU21D;53638;51.062;5.804;2022-08-06T02:38:48;12.37;112.35
66726;HTU21D;53638;51.062;5.804;2022-08-06T02:41:18;12.31;113.20
66726;HTU21D;53638;51.062;5.804;2022-08-06T02:43:52;12.31;114.08
66726;HTU21D;53638;51.062;5.804;2022-08-06T02:46:27;12.29;113.45
66726;HTU21D;53638;51.062;5.804;2022-08-06T02:49:01;12.27;114.76
66726;HTU21D;53638;51.062;5.804;2022-08-06T02:51:36;12.23;113.95
66726;HTU21D;53638;51.062;5.804;2022-08-06T02:54:06;12.21;112.41
66726;HTU21D;53638;51.062;5.804;2022-08-06T02:56:37;12.18;111.07
66726;HTU21D;53638;51.062;5.804;2022-08-06T02:59:09;12.15;110.74
66726;HTU21D;53638;51.062;5.804;2022-08-06T03:01:40;12.10;111.32
66726;HTU21D;53638;51.062;5.804;2022-08-06T03:04:09;12.05;112.12
66726;HTU21D;53638;51.062;5.804;2022-08-06T03:06:36;12.00;114.48
66726;HTU21D;53638;51.062;5.804;2022-08-06T03:09:05;11.98;116.47
66726;HTU21D;53638;51.062;5.804;2022-08-06T03:11:34;11.93;117.73
66726;HTU21D;53638;51.062;5.804;2022-08-06T03:14:03;11.92;117.56
66726;HTU21D;53638;51.062;5.804;2022-08-06T03:16:35;11.90;116.34
66726;HTU21D;53638;51.062;5.804;2022-08-06T03:19:03;11.90;115.30
66726;HTU21D;53638;51.062;5.804;2022-08-06T03:21:30;11.88;115.22
66726;HTU21D;53638;51.062;5.804;2022-08-06T03:23:59;11.88;116.73
66726;HTU21D;53638;51.062;5.804;2022-08-06T03:26:27;11.90;118.63
66726;HTU21D;53638;51.062;5.804;2022-08-06T03:28:56;11.88;118.78
66726;HTU21D;53638;51.062;5.804;2022-08-06T03:31:25;11.86;118.91
66726;HTU21D;53638;51.062;5.804;2022-08-06T03:33:53;11.85;118.18
66726;HTU21D;53638;51.062;5.804;2022-08-06T03:36:21;11.82;116.99
66726;HTU21D;53638;51.062;5.804;2022-08-06T03:38:56;11.78;116.63
66726;HTU21D;53638;51.062;5.804;2022-08-06T03:41:24;11.75;117.44
66726;HTU21D;53638;51.062;5.804;2022-08-06T03:43:51;11.73;116.83
66726;HTU21D;53638;51.062;5.804;2022-08-06T03:46:23;11.73;116.38
66726;HTU21D;53638;51.062;5.804;2022-08-06T03:48:52;11.71;115.92
66726;HTU21D;53638;51.062;5.804;2022-08-06T03:51:23;11.69;114.12
66726;HTU21D;53638;51.062;5.804;2022-08-06T03:53:52;11.68;116.39
66726;HTU21D;53638;51.062;5.804;2022-08-06T03:56:23;11.64;117.07
66726;HTU21D;53638;51.062;5.804;2022-08-06T03:58:51;11.59;115.23
66726;HTU21D;53638;51.062;5.804;2022-08-06T04:01:22;11.57;113.35
66726;HTU21D;53638;51.062;5.804;2022-08-06T04:03:50;11.46;112.61
66726;HTU21D;53638;51.062;5.804;2022-08-06T04:06:18;11.41;111.52
66726;HTU21D;53638;51.062;5.804;2022-08-06T04:08:45;11.37;111.62
66726;HTU21D;53638;51.062;5.804;2022-08-06T04:11:12;11.33;111.29
66726;HTU21D;53638;51.062;5.804;2022-08-06T04:13:39;11.33;111.23
66726;HTU21D;53638;51.062;5.804;2022-08-06T04:16:06;11.32;111.18
66726;HTU21D;53638;51.062;5.804;2022-08-06T04:18:35;11.33;115.59
66726;HTU21D;53638;51.062;5.804;2022-08-06T04:21:06;11.32;117.40
66726;HTU21D;53638;51.062;5.804;2022-08-06T04:23:32;11.36;117.58
66726;HTU21D;53638;51.062;5.804;2022-08-06T04:26:02;11.37;117.88
66726;HTU21D;53638;51.062;5.804;2022-08-06T04:28:30;11.37;115.81
66726;HTU21D;53638;51.062;5.804;2022-08-06T04:30:59;11.37;114.03
66726;HTU21D;53638;51.062;5.804;2022-08-06T04:33:27;11.39;114.36
66726;HTU21D;53638;51.062;5.804;2022-08-06T04:35:54;11.41;116.67
66726;HTU21D;53638;51.062;5.804;2022-08-06T04:38:22;11.45;118.99
66726;HTU21D;53638;51.062;5.804;2022-08-06T04:40:48;11.51;118.99
66726;HTU21D;53638;51.062;5.804;2022-08-06T04:43:15;11.56;118.99
66726;HTU21D;53638;51.062;5.804;2022-08-06T04:45:43;11.60;118.99
66726;HTU21D;53638;51.062;5.804;2022-08-06T04:48:10;11.63;118.99
66726;HTU21D;53638;51.062;5.804;2022-08-06T04:50:38;11.64;118.99
66726;HTU21D;53638;51.062;5.804;2022-08-06T04:53:13;11.68;118.99
66726;HTU21D;53638;51.062;5.804;2022-08-06T04:55:41;11.73;118.99
66726;HTU21D;53638;51.062;5.804;2022-08-06T04:58:09;11.76;118.99
66726;HTU21D;53638;51.062;5.804;2022-08-06T05:00:38;11.79;118.99
66726;HTU21D;53638;51.062;5.804;2022-08-06T05:03:04;11.85;118.99
66726;HTU21D;53638;51.062;5.804;2022-08-06T05:05:34;11.89;118.99
66726;HTU21D;53638;51.062;5.804;2022-08-06T05:08:03;11.93;118.99
66726;HTU21D;53638;51.062;5.804;2022-08-06T05:10:37;11.98;118.99
66726;HTU21D;53638;51.062;5.804;2022-08-06T05:13:07;12.03;118.99
66726;HTU21D;53638;51.062;5.804;2022-08-06T05:15:40;12.08;118.99
66726;HTU21D;53638;51.062;5.804;2022-08-06T05:18:10;12.16;118.99
66726;HTU21D;53638;51.062;5.804;2022-08-06T05:20:40;12.22;118.99
66726;HTU21D;53638;51.062;5.804;2022-08-06T05:23:11;12.33;118.99
66726;HTU21D;53638;51.062;5.804;2022-08-06T05:25:39;12.43;118.99
66726;HTU21D;53638;51.062;5.804;2022-08-06T05:28:05;12.49;118.99
66726;HTU21D;53638;51.062;5.804;2022-08-06T05:30:32;12.53;118.99
66726;HTU21D;53638;51.062;5.804;2022-08-06T05:32:57;12.58;118.99
66726;HTU21D;53638;51.062;5.804;2022-08-06T05:35:24;12.63;118.99
66726;HTU21D;53638;51.062;5.804;2022-08-06T05:37:50;12.70;118.99
66726;HTU21D;53638;51.062;5.804;2022-08-06T05:40:16;12.74;118.99
66726;HTU21D;53638;51.062;5.804;2022-08-06T05:42:42;12.77;118.99
66726;HTU21D;53638;51.062;5.804;2022-08-06T05:45:10;12.82;118.99
66726;HTU21D;53638;51.062;5.804;2022-08-06T05:47:41;12.89;118.99
66726;HTU21D;53638;51.062;5.804;2022-08-06T05:50:11;12.93;118.99
66726;HTU21D;53638;51.062;5.804;2022-08-06T05:52:53;12.97;118.99
66726;HTU21D;53638;51.062;5.804;2022-08-06T05:55:29;13.05;118.99
66726;HTU21D;53638;51.062;5.804;2022-08-06T05:58:00;13.14;118.99
66726;HTU21D;53638;51.062;5.804;2022-08-06T06:00:32;13.19;118.99
66726;HTU21D;53638;51.062;5.804;2022-08-06T06:03:03;13.24;118.99
66726;HTU21D;53638;51.062;5.804;2022-08-06T06:05:30;13.29;118.99
66726;HTU21D;53638;51.062;5.804;2022-08-06T06:07:56;13.34;118.99
66726;HTU21D;53638;51.062;5.804;2022-08-06T06:10:23;13.43;118.99
66726;HTU21D;53638;51.062;5.804;2022-08-06T06:12:51;13.53;118.99
66726;HTU21D;53638;51.062;5.804;2022-08-06T06:15:18;13.63;118.99
66726;HTU21D;53638;51.062;5.804;2022-08-06T06:23:15;13.98;118.99
66726;HTU21D;53638;51.062;5.804;2022-08-06T06:25:54;14.10;118.99
66726;HTU21D;53638;51.062;5.804;2022-08-06T06:28:28;14.17;118.99
66726;HTU21D;53638;51.062;5.804;2022-08-06T06:33:23;14.28;118.99
66726;HTU21D;53638;51.062;5.804;2022-08-06T06:35:55;14.37;118.99
66726;HTU21D;53638;51.062;5.804;2022-08-06T06:38:51;14.43;118.15
66726;HTU21D;53638;51.062;5.804;2022-08-06T06:41:30;14.51;116.41
66726;HTU21D;53638;51.062;5.804;2022-08-06T06:44:18;14.62;117.26
66726;HTU21D;53638;51.062;5.804;2022-08-06T06:46:54;14.70;116.68
66726;HTU21D;53638;51.062;5.804;2022-08-06T06:49:40;14.87;116.26
66726;HTU21D;53638;51.062;5.804;2022-08-06T06:52:21;15.03;114.69
66726;HTU21D;53638;51.062;5.804;2022-08-06T06:54:56;15.16;113.45
66726;HTU21D;53638;51.062;5.804;2022-08-06T06:57:31;15.33;113.73
66726;HTU21D;53638;51.062;5.804;2022-08-06T07:00:02;15.43;112.76
66726;HTU21D;53638;51.062;5.804;2022-08-06T07:02:32;15.51;112.27
66726;HTU21D;53638;51.062;5.804;2022-08-06T07:05:04;15.57;111.99
66726;HTU21D;53638;51.062;5.804;2022-08-06T07:07:33;15.66;112.56
66726;HTU21D;53638;51.062;5.804;2022-08-06T07:10:02;15.74;111.84
66726;HTU21D;53638;51.062;5.804;2022-08-06T07:12:32;15.87;111.23
66726;HTU21D;53638;51.062;5.804;2022-08-06T07:15:03;16.01;111.42
66726;HTU21D;53638;51.062;5.804;2022-08-06T07:17:32;16.11;110.83
66726;HTU21D;53638;51.062;5.804;2022-08-06T07:20:04;16.18;109.64
66726;HTU21D;53638;51.062;5.804;2022-08-06T07:22:32;16.22;109.45
66726;HTU21D;53638;51.062;5.804;2022-08-06T07:25:02;16.28;109.49
66726;HTU21D;53638;51.062;5.804;2022-08-06T07:27:33;16.34;108.87
66726;HTU21D;53638;51.062;5.804;2022-08-06T07:30:01;16.43;108.41
66726;HTU21D;53638;51.062;5.804;2022-08-06T07:32:29;16.52;108.81
66726;HTU21D;53638;51.062;5.804;2022-08-06T07:34:55;16.64;108.15
66726;HTU21D;53638;51.062;5.804;2022-08-06T07:37:25;16.73;107.53
66726;HTU21D;53638;51.062;5.804;2022-08-06T07:39:59;16.89;106.21
66726;HTU21D;53638;51.062;5.804;2022-08-06T07:42:27;16.96;106.21
66726;HTU21D;53638;51.062;5.804;2022-08-06T07:45:01;17.10;104.72
66726;HTU21D;53638;51.062;5.804;2022-08-06T07:47:41;17.23;104.34
66726;HTU21D;53638;51.062;5.804;2022-08-06T07:50:12;17.36;103.85
66726;HTU21D;53638;51.062;5.804;2022-08-06T07:52:40;17.41;103.79
66726;HTU21D;53638;51.062;5.804;2022-08-06T07:55:09;17.49;103.28
66726;HTU21D;53638;51.062;5.804;2022-08-06T07:57:37;17.58;102.54
66726;HTU21D;53638;51.062;5.804;2022-08-06T08:00:04;17.68;102.39
66726;HTU21D;53638;51.062;5.804;2022-08-06T08:02:38;17.77;101.70
66726;HTU21D;53638;51.062;5.804;2022-08-06T08:05:05;17.84;101.06
66726;HTU21D;53638;51.062;5.804;2022-08-06T08:07:50;17.92;101.33
66726;HTU21D;53638;51.062;5.804;2022-08-06T08:10:17;18.00;101.15
66726;HTU21D;53638;51.062;5.804;2022-08-06T08:12:44;18.09;101.41
66726;HTU21D;53638;51.062;5.804;2022-08-06T08:15:11;18.24;100.38
66726;HTU21D;53638;51.062;5.804;2022-08-06T08:17:37;18.34;99.22
66726;HTU21D;53638;51.062;5.804;2022-08-06T08:20:06;18.39;99.29
66726;HTU21D;53638;51.062;5.804;2022-08-06T08:22:32;18.50;98.50
66726;HTU21D;53638;51.062;5.804;2022-08-06T08:24:58;18.57;98.00
66726;HTU21D;53638;51.062;5.804;2022-08-06T08:27:24;18.64;98.63
66726;HTU21D;53638;51.062;5.804;2022-08-06T08:29:50;18.71;98.13
66726;HTU21D;53638;51.062;5.804;2022-08-06T08:32:17;18.82;97.08
66726;HTU21D;53638;51.062;5.804;2022-08-06T08:34:43;18.87;96.28
66726;HTU21D;53638;51.062;5.804;2022-08-06T08:37:09;18.97;95.20
66726;HTU21D;53638;51.062;5.804;2022-08-06T08:39:35;19.03;95.31
66726;HTU21D;53638;51.062;5.804;2022-08-06T08:42:10;19.18;95.22
66726;HTU21D;53638;51.062;5.804;2022-08-06T08:44:38;19.24;91.39
66726;HTU21D;53638;51.062;5.804;2022-08-06T08:47:07;19.28;92.45
66726;HTU21D;53638;51.062;5.804;2022-08-06T08:49:40;19.41;93.71
66726;HTU21D;53638;51.062;5.804;2022-08-06T08:52:08;19.59;92.98
66726;HTU21D;53638;51.062;5.804;2022-08-06T08:54:42;19.77;92.28
66726;HTU21D;53638;51.062;5.804;2022-08-06T08:57:10;19.86;92.11
66726;HTU21D;53638;51.062;5.804;2022-08-06T08:59:36;19.95;92.37
66726;HTU21D;53638;51.062;5.804;2022-08-06T09:02:04;19.99;92.14
66726;HTU21D;53638;51.062;5.804;2022-08-06T09:04:32;20.10;90.87
66726;HTU21D;53638;51.062;5.804;2022-08-06T09:06:58;20.17;90.47
66726;HTU21D;53638;51.062;5.804;2022-08-06T09:09:24;20.25;88.86
66726;HTU21D;53638;51.062;5.804;2022-08-06T09:11:52;20.33;88.86
66726;HTU21D;53638;51.062;5.804;2022-08-06T09:14:20;20.45;89.52
66726;HTU21D;53638;51.062;5.804;2022-08-06T09:16:46;20.55;89.50
66726;HTU21D;53638;51.062;5.804;2022-08-06T09:19:13;20.62;89.36
66726;HTU21D;53638;51.062;5.804;2022-08-06T09:21:39;20.72;88.56
66726;HTU21D;53638;51.062;5.804;2022-08-06T09:24:05;20.80;88.86
66726;HTU21D;53638;51.062;5.804;2022-08-06T09:26:31;20.86;87.77
66726;HTU21D;53638;51.062;5.804;2022-08-06T09:28:59;21.03;86.74
66726;HTU21D;53638;51.062;5.804;2022-08-06T09:31:25;21.23;86.84
66726;HTU21D;53638;51.062;5.804;2022-08-06T09:36:19;21.54;83.51
66726;HTU21D;53638;51.062;5.804;2022-08-06T09:38:54;21.60;83.40
66726;HTU21D;53638;51.062;5.804;2022-08-06T09:41:23;21.59;83.13
66726;HTU21D;53638;51.062;5.804;2022-08-06T09:43:51;21.59;81.71
66726;HTU21D;53638;51.062;5.804;2022-08-06T09:49:02;21.70;81.31
66726;HTU21D;53638;51.062;5.804;2022-08-06T09:51:28;21.78;80.97
66726;HTU21D;53638;51.062;5.804;2022-08-06T09:53:58;21.89;81.36
66726;HTU21D;53638;51.062;5.804;2022-08-06T09:56:26;21.95;79.31
66726;HTU21D;53638;51.062;5.804;2022-08-06T09:59:04;21.98;79.35
66726;HTU21D;53638;51.062;5.804;2022-08-06T10:01:39;21.98;78.91
66726;HTU21D;53638;51.062;5.804;2022-08-06T10:04:06;22.04;78.65
66726;HTU21D;53638;51.062;5.804;2022-08-06T10:06:32;22.05;79.01
66726;HTU21D;53638;51.062;5.804;2022-08-06T10:09:09;22.06;80.43
66726;HTU21D;53638;51.062;5.804;2022-08-06T10:11:39;22.06;77.08
66726;HTU21D;53638;51.062;5.804;2022-08-06T10:14:06;22.07;77.59
66726;HTU21D;53638;51.062;5.804;2022-08-06T10:19:31;22.25;75.47
66726;HTU21D;53638;51.062;5.804;2022-08-06T10:22:07;22.16;77.53
66726;HTU21D;53638;51.062;5.804;2022-08-06T10:24:37;22.18;77.35
66726;HTU21D;53638;51.062;5.804;2022-08-06T10:27:09;22.20;77.02
66726;HTU21D;53638;51.062;5.804;2022-08-06T10:29:40;22.26;73.72
66726;HTU21D;53638;51.062;5.804;2022-08-06T10:32:09;22.12;72.85
66726;HTU21D;53638;51.062;5.804;2022-08-06T10:34:41;22.07;74.00
66726;HTU21D;53638;51.062;5.804;2022-08-06T10:37:12;22.23;76.63
66726;HTU21D;53638;51.062;5.804;2022-08-06T10:39:45;22.39;75.57
66726;HTU21D;53638;51.062;5.804;2022-08-06T10:42:12;22.65;75.31
66726;HTU21D;53638;51.062;5.804;2022-08-06T10:44:39;22.92;74.92
66726;HTU21D;53638;51.062;5.804;2022-08-06T10:47:05;23.12;74.75
66726;HTU21D;53638;51.062;5.804;2022-08-06T10:49:32;23.41;76.05
66726;HTU21D;53638;51.062;5.804;2022-08-06T10:51:59;23.79;70.63
66726;HTU21D;53638;51.062;5.804;2022-08-06T10:54:26;25.00;70.63
66726;HTU21D;53638;51.062;5.804;2022-08-06T10:56:55;27.05;58.66
66726;HTU21D;53638;51.062;5.804;2022-08-06T10:59:21;28.65;53.48
66726;HTU21D;53638;51.062;5.804;2022-08-06T11:02:01;30.10;51.59
66726;HTU21D;53638;51.062;5.804;2022-08-06T11:04:45;31.21;48.33
66726;HTU21D;53638;51.062;5.804;2022-08-06T11:07:36;31.79;47.39
66726;HTU21D;53638;51.062;5.804;2022-08-06T11:10:23;31.41;43.93
66726;HTU21D;53638;51.062;5.804;2022-08-06T11:13:07;32.68;41.36
66726;HTU21D;53638;51.062;5.804;2022-08-06T11:15:36;33.50;41.32
66726;HTU21D;53638;51.062;5.804;2022-08-06T11:18:05;33.82;41.09
66726;HTU21D;53638;51.062;5.804;2022-08-06T11:22:58;34.15;37.98
66726;HTU21D;53638;51.062;5.804;2022-08-06T11:25:40;32.76;40.59
66726;HTU21D;53638;51.062;5.804;2022-08-06T11:28:09;33.09;38.91
66726;HTU21D;53638;51.062;5.804;2022-08-06T11:30:39;33.94;38.37
66726;HTU21D;53638;51.062;5.804;2022-08-06T11:33:06;34.91;35.73
66726;HTU21D;53638;51.062;5.804;2022-08-06T11:38:00;35.63;34.27
66726;HTU21D;53638;51.062;5.804;2022-08-06T11:40:28;35.63;33.28
66726;HTU21D;53638;51.062;5.804;2022-08-06T11:42:54;35.87;32.07
66726;HTU21D;53638;51.062;5.804;2022-08-06T11:45:20;36.49;32.28
66726;HTU21D;53638;51.062;5.804;2022-08-06T11:48:03;37.54;30.89
66726;HTU21D;53638;51.062;5.804;2022-08-06T11:50:30;37.73;30.68
66726;HTU21D;53638;51.062;5.804;2022-08-06T11:52:56;37.49;32.78
66726;HTU21D;53638;51.062;5.804;2022-08-06T11:55:23;37.70;33.19
66726;HTU21D;53638;51.062;5.804;2022-08-06T12:00:54;37.90;32.05
66726;HTU21D;53638;51.062;5.804;2022-08-06T12:03:39;38.08;30.90
66726;HTU21D;53638;51.062;5.804;2022-08-06T12:06:19;38.83;29.68
66726;HTU21D;53638;51.062;5.804;2022-08-06T12:09:07;39.45;29.76
66726;HTU21D;53638;51.062;5.804;2022-08-06T12:11:33;39.29;29.76
66726;HTU21D;53638;51.062;5.804;2022-08-06T12:14:02;39.43;27.56
66726;HTU21D;53638;51.062;5.804;2022-08-06T12:16:32;39.00;26.20
66726;HTU21D;53638;51.062;5.804;2022-08-06T12:18:59;38.62;26.94
66726;HTU21D;53638;51.062;5.804;2022-08-06T12:21:25;39.08;26.61
66726;HTU21D;53638;51.062;5.804;2022-08-06T12:23:52;39.17;27.02
66726;HTU21D;53638;51.062;5.804;2022-08-06T12:26:20;38.84;27.77
66726;HTU21D;53638;51.062;5.804;2022-08-06T12:28:47;38.16;25.49
66726;HTU21D;53638;51.062;5.804;2022-08-06T12:31:13;37.59;28.15
66726;HTU21D;53638;51.062;5.804;2022-08-06T12:33:53;37.71;29.89
66726;HTU21D;53638;51.062;5.804;2022-08-06T12:36:19;37.80;27.67
66726;HTU21D;53638;51.062;5.804;2022-08-06T12:38:54;38.05;28.81
66726;HTU21D;53638;51.062;5.804;2022-08-06T12:41:20;38.80;27.93
66726;HTU21D;53638;51.062;5.804;2022-08-06T12:43:46;39.29;27.26
66726;HTU21D;53638;51.062;5.804;2022-08-06T12:46:12;39.54;24.86
66726;HTU21D;53638;51.062;5.804;2022-08-06T12:48:45;39.57;25.36
66726;HTU21D;53638;51.062;5.804;2022-08-06T12:51:13;40.27;24.82
66726;HTU21D;53638;51.062;5.804;2022-08-06T12:53:50;40.24;24.33
66726;HTU21D;53638;51.062;5.804;2022-08-06T12:56:19;39.85;23.44
66726;HTU21D;53638;51.062;5.804;2022-08-06T12:58:47;39.27;23.65
66726;HTU21D;53638;51.062;5.804;2022-08-06T13:01:20;39.34;23.01
66726;HTU21D;53638;51.062;5.804;2022-08-06T13:03:50;39.32;22.43
66726;HTU21D;53638;51.062;5.804;2022-08-06T13:06:19;38.66;23.17
66726;HTU21D;53638;51.062;5.804;2022-08-06T13:08:49;38.34;23.88
66726;HTU21D;53638;51.062;5.804;2022-08-06T13:11:16;38.01;23.19
66726;HTU21D;53638;51.062;5.804;2022-08-06T13:13:50;37.32;25.43
66726;HTU21D;53638;51.062;5.804;2022-08-06T13:16:18;37.29;25.42
66726;HTU21D;53638;51.062;5.804;2022-08-06T13:19:07;38.00;25.62
66726;HTU21D;53638;51.062;5.804;2022-08-06T13:21:33;38.11;25.28
66726;HTU21D;53638;51.062;5.804;2022-08-06T13:24:03;38.21;24.89
66726;HTU21D;53638;51.062;5.804;2022-08-06T13:26:31;38.63;25.04
66726;HTU21D;53638;51.062;5.804;2022-08-06T13:31:36;38.49;23.66
66726;HTU21D;53638;51.062;5.804;2022-08-06T13:34:05;38.01;24.49
66726;HTU21D;53638;51.062;5.804;2022-08-06T13:36:33;37.59;26.57
66726;HTU21D;53638;51.062;5.804;2022-08-06T13:39:19;37.61;27.08
66726;HTU21D;53638;51.062;5.804;2022-08-06T13:41:45;37.87;26.30
66726;HTU21D;53638;51.062;5.804;2022-08-06T13:44:36;38.25;25.27
66726;HTU21D;53638;51.062;5.804;2022-08-06T13:47:05;38.37;26.14
66726;HTU21D;53638;51.062;5.804;2022-08-06T13:49:32;38.51;26.29
66726;HTU21D;53638;51.062;5.804;2022-08-06T13:51:58;38.95;25.03
66726;HTU21D;53638;51.062;5.804;2022-08-06T13:54:25;38.49;27.17
66726;HTU21D;53638;51.062;5.804;2022-08-06T13:56:54;38.48;27.20
66726;HTU21D;53638;51.062;5.804;2022-08-06T13:59:24;38.82;26.28
66726;HTU21D;53638;51.062;5.804;2022-08-06T14:01:50;39.42;25.15
66726;HTU21D;53638;51.062;5.804;2022-08-06T14:04:19;39.56;25.19
66726;HTU21D;53638;51.062;5.804;2022-08-06T14:06:49;39.28;25.50
66726;HTU21D;53638;51.062;5.804;2022-08-06T14:09:18;39.14;25.04
66726;HTU21D;53638;51.062;5.804;2022-08-06T14:11:43;39.07;25.95
66726;HTU21D;53638;51.062;5.804;2022-08-06T14:14:09;39.00;25.43
66726;HTU21D;53638;51.062;5.804;2022-08-06T14:16:35;39.37;24.56
66726;HTU21D;53638;51.062;5.804;2022-08-06T14:19:01;39.45;24.56
66726;HTU21D;53638;51.062;5.804;2022-08-06T14:21:27;39.47;24.57
66726;HTU21D;53638;51.062;5.804;2022-08-06T14:23:53;39.45;23.54
66726;HTU21D;53638;51.062;5.804;2022-08-06T14:26:19;39.30;25.15
66726;HTU21D;53638;51.062;5.804;2022-08-06T14:28:44;39.27;26.19
66726;HTU21D;53638;51.062;5.804;2022-08-06T14:31:10;39.36;24.37
66726;HTU21D;53638;51.062;5.804;2022-08-06T14:33:36;39.22;26.43
66726;HTU21D;53638;51.062;5.804;2022-08-06T14:36:03;39.62;26.40
66726;HTU21D;53638;51.062;5.804;2022-08-06T14:38:29;39.65;25.68
66726;HTU21D;53638;51.062;5.804;2022-08-06T14:40:55;38.44;26.52
66726;HTU21D;53638;51.062;5.804;2022-08-06T14:43:39;36.85;28.77
66726;HTU21D;53638;51.062;5.804;2022-08-06T14:46:26;36.66;29.36
66726;HTU21D;53638;51.062;5.804;2022-08-06T14:48:53;36.83;28.89
66726;HTU21D;53638;51.062;5.804;2022-08-06T14:51:19;36.86;28.31
66726;HTU21D;53638;51.062;5.804;2022-08-06T14:53:45;36.95;28.48
66726;HTU21D;53638;51.062;5.804;2022-08-06T14:56:11;37.07;26.55
66726;HTU21D;53638;51.062;5.804;2022-08-06T14:58:36;37.25;28.71
66726;HTU21D;53638;51.062;5.804;2022-08-06T15:01:02;37.32;28.42
66726;HTU21D;53638;51.062;5.804;2022-08-06T15:03:28;37.03;27.74
66726;HTU21D;53638;51.062;5.804;2022-08-06T15:05:54;36.32;28.26
66726;HTU21D;53638;51.062;5.804;2022-08-06T15:08:20;35.35;28.92
66726;HTU21D;53638;51.062;5.804;2022-08-06T15:10:46;34.40;31.70
66726;HTU21D;53638;51.062;5.804;2022-08-06T15:13:12;33.75;32.52
66726;HTU21D;53638;51.062;5.804;2022-08-06T15:15:37;33.51;33.02
66726;HTU21D;53638;51.062;5.804;2022-08-06T15:18:03;33.97;32.84
66726;HTU21D;53638;51.062;5.804;2022-08-06T15:20:29;34.38;32.09
66726;HTU21D;53638;51.062;5.804;2022-08-06T15:22:56;34.73;30.89
66726;HTU21D;53638;51.062;5.804;2022-08-06T15:25:22;34.79;31.41
66726;HTU21D;53638;51.062;5.804;2022-08-06T15:27:49;34.86;31.28
66726;HTU21D;53638;51.062;5.804;2022-08-06T15:30:15;35.26;30.34
66726;HTU21D;53638;51.062;5.804;2022-08-06T15:32:41;35.47;30.04
66726;HTU21D;53638;51.062;5.804;2022-08-06T15:35:07;35.67;29.74
66726;HTU21D;53638;51.062;5.804;2022-08-06T15:37:33;36.08;28.88
66726;HTU21D;53638;51.062;5.804;2022-08-06T15:39:59;36.60;27.00
66726;HTU21D;53638;51.062;5.804;2022-08-06T15:42:25;36.81;27.42
66726;HTU21D;53638;51.062;5.804;2022-08-06T15:44:52;37.25;26.11
66726;HTU21D;53638;51.062;5.804;2022-08-06T15:47:18;38.04;25.27
66726;HTU21D;53638;51.062;5.804;2022-08-06T15:49:44;37.97;26.08
66726;HTU21D;53638;51.062;5.804;2022-08-06T15:52:10;37.11;26.44
66726;HTU21D;53638;51.062;5.804;2022-08-06T15:54:36;36.32;27.65